Time;durP1;ratioP1;P1;durP2;ratioP2;P2;SDS_P1;SDS_P2;PMS_P1;PMS_P2;Temp;Humidity;BMP_temperature;BMP_pressure;BME280_temperature;BME280_humidity;BME280_pressure;Samples;Min_cycle;Max_cycle;Signal;HPM_P1;HPM_P2
2023/02/13 00:01:22;;;;;;;19.00;11.15;;;7.90;99.90;;;;;;6399547;22;20686;-89
2023/02/13 00:04:06;;;;;;;;;;;;;;;;;;;;;
2023/02/13 00:06:32;;;;;;;19.98;12.43;;;7.80;99.90;;;;;;6399125;22;20213;-87
2023/02/13 00:09:03;;;;;;;16.77;11.40;;;7.80;99.90;;;;;;6399519;22;20208;-88
2023/02/13 00:11:31;;;;;;;18.70;11.35;;;7.90;99.90;;;;;;6398850;22;20130;-88
2023/02/13 00:13:57;;;;;;;19.58;11.98;;;7.80;99.90;;;;;;6399726;22;20145;-89
2023/02/13 00:16:25;;;;;;;18.83;12.30;;;7.80;99.90;;;;;;6399504;22;20145;-88
2023/02/13 00:19:10;;;;;;;19.42;11.63;;;7.80;99.90;;;;;;6397902;22;20696;-88
2023/02/13 00:21:38;;;;;;;20.80;13.35;;;7.80;99.90;;;;;;6398612;22;20134;-88
2023/02/13 00:24:09;;;;;;;21.08;12.45;;;7.80;99.90;;;;;;6368702;22;20153;-88
2023/02/13 00:26:55;;;;;;;22.63;14.07;;;7.70;99.90;;;;;;6398659;22;20126;-88
2023/02/13 00:29:20;;;;;;;18.77;11.13;;;7.70;99.90;;;;;;6398862;22;20189;-88
2023/02/13 00:31:53;;;;;;;18.03;12.27;;;7.70;99.90;;;;;;6371744;22;20479;-89
2023/02/13 00:34:21;;;;;;;23.58;13.00;;;7.70;99.90;;;;;;6397689;22;20165;-88
2023/02/13 00:36:56;;;;;;;;;;;;;;;;;;;;;
2023/02/13 00:39:42;;;;;;;25.38;12.88;;;7.60;99.90;;;;;;6398591;22;20248;-89
2023/02/13 00:42:49;;;;;;;20.83;12.95;;;7.60;99.90;;;;;;6398462;22;20165;-88
2023/02/13 00:49:06;;;;;;;22.75;15.30;;;7.50;1.00;;;;;;6377415;22;20189;-89
2023/02/13 00:51:40;;;;;;;23.35;12.40;;;7.50;1.00;;;;;;6398077;22;20526;-88
2023/02/13 00:54:31;;;;;;;19.92;14.10;;;7.40;1.00;;;;;;6370556;22;20623;-87
2023/02/13 00:57:04;;;;;;;25.55;15.20;;;7.40;1.00;;;;;;6399719;22;20150;-88
2023/02/13 00:59:51;;;;;;;23.25;13.50;;;7.40;1.00;;;;;;6370748;22;20184;-88
2023/02/13 01:02:18;;;;;;;27.27;13.02;;;7.40;1.00;;;;;;6401244;22;20488;-89
2023/02/13 01:04:44;;;;;;;23.30;15.48;;;7.30;1.00;;;;;;6402393;22;20228;-89
2023/02/13 01:07:15;;;;;;;21.80;13.93;;;7.30;1.00;;;;;;6401698;22;20619;-89
2023/02/13 01:09:48;;;;;;;26.90;15.20;;;7.30;1.00;;;;;;6372467;22;20218;-88
2023/02/13 01:12:14;;;;;;;27.10;14.90;;;7.30;1.00;;;;;;6373247;22;20290;-87
2023/02/13 01:14:51;;;;;;;25.00;15.53;;;7.30;1.00;;;;;;6401694;22;20146;-89
2023/02/13 01:17:19;;;;;;;23.90;14.68;;;7.20;1.00;;;;;;6374091;22;20647;-89
2023/02/13 01:19:45;;;;;;;29.88;16.25;;;7.20;1.00;;;;;;6402731;22;20904;-88
2023/02/13 01:22:10;;;;;;;30.37;15.90;;;7.20;1.00;;;;;;6401934;22;20153;-88
2023/02/13 01:24:38;;;;;;;32.60;17.30;;;7.20;1.00;;;;;;6373791;22;20213;-89
2023/02/13 01:27:04;;;;;;;26.98;15.43;;;7.20;1.00;;;;;;6401769;22;20544;-88
2023/02/13 01:29:29;;;;;;;27.67;17.00;;;7.20;1.00;;;;;;6401944;22;20161;-87
2023/02/13 01:32:10;;;;;;;32.10;16.50;;;7.20;1.00;;;;;;6371373;22;20153;-88
2023/02/13 01:34:38;;;;;;;30.38;17.15;;;7.20;1.00;;;;;;6401030;22;20761;-87
2023/02/13 01:37:11;;;;;;;29.63;16.48;;;7.10;1.00;;;;;;6400102;22;20146;-88
2023/02/13 01:39:48;;;;;;;33.22;18.73;;;7.10;1.00;;;;;;6401114;22;20174;-87
2023/02/13 01:42:34;;;;;;;28.13;17.05;;;7.10;1.00;;;;;;6373707;22;20221;-87
2023/02/13 01:45:03;;;;;;;41.08;19.73;;;7.10;1.00;;;;;;6374462;22;20153;-87
2023/02/13 01:47:42;;;;;;;36.55;19.27;;;7.10;1.00;;;;;;6399964;22;20149;-88
2023/02/13 01:50:25;;;;;;;34.55;20.15;;;7.00;1.00;;;;;;6373554;22;20177;-88
2023/02/13 01:52:59;;;;;;;41.35;21.20;;;7.00;1.00;;;;;;6372391;22;20152;-88
2023/02/13 01:55:27;;;;;;;28.40;17.73;;;7.00;1.00;;;;;;6372204;22;20163;-89
2023/02/13 01:58:08;;;;;;;34.05;18.58;;;7.00;1.00;;;;;;6400829;22;20526;-88
2023/02/13 02:00:37;;;;;;;32.35;18.63;;;7.00;1.00;;;;;;6400914;22;20169;-89
2023/02/13 02:03:24;;;;;;;32.83;18.75;;;7.00;1.00;;;;;;6400883;22;20781;-88
2023/02/13 02:05:51;;;;;;;34.75;19.10;;;7.00;1.00;;;;;;6371256;22;20230;-88
2023/02/13 02:08:37;;;;;;;35.97;19.83;;;7.00;1.00;;;;;;6401100;22;20236;-88
2023/02/13 02:11:19;;;;;;;30.95;17.33;;;7.00;1.00;;;;;;6371345;22;20202;-88
2023/02/13 02:13:53;;;;;;;30.77;18.80;;;6.90;1.00;;;;;;6400459;22;20477;-88
2023/02/13 02:16:18;;;;;;;39.03;20.30;;;6.90;1.00;;;;;;6400844;22;20183;-88
2023/02/13 02:19:02;;;;;;;;;;;;;;;;;;;;;
2023/02/13 02:22:02;;;;;;;33.00;18.42;;;6.90;1.00;;;;;;6399392;22;20649;-88
2023/02/13 02:24:46;;;;;;;31.48;19.20;;;6.90;1.00;;;;;;6400734;22;20137;-88
2023/02/13 02:27:15;;;;;;;34.85;20.38;;;6.90;1.00;;;;;;6399655;22;20134;-89
2023/02/13 02:30:02;;;;;;;33.45;19.88;;;6.90;1.00;;;;;;6372628;22;20666;-88
2023/02/13 02:32:30;;;;;;;30.83;18.63;;;6.80;1.00;;;;;;6402180;22;20175;-87
2023/02/13 02:35:45;;;;;;;35.38;19.75;;;6.80;1.00;;;;;;6400760;22;20596;-88
2023/02/13 02:38:27;;;;;;;35.55;19.58;;;6.80;1.00;;;;;;6372212;22;20173;-87
2023/02/13 02:41:40;;;;;;;32.10;17.67;;;6.80;1.00;;;;;;6400902;22;20122;-89
2023/02/13 02:44:28;;;;;;;32.63;17.88;;;6.80;1.00;;;;;;6398010;22;20150;-89
2023/02/13 02:50:54;;;;;;;35.03;20.17;;;6.80;1.00;;;;;;6399784;22;20180;-88
2023/02/13 02:53:48;;;;;;;33.85;19.80;;;6.80;1.00;;;;;;6315489;22;20158;-89
2023/02/13 02:56:23;;;;;;;34.83;19.33;;;6.80;1.00;;;;;;6399564;22;20473;-89
2023/02/13 03:07:47;;;;;;;31.38;20.00;;;6.70;1.00;;;;;;6400676;22;20194;-88
2023/02/13 03:13:41;;;;;;;36.25;17.45;;;6.70;1.00;;;;;;6402321;22;20149;-89
2023/02/13 03:25:11;;;;;;;30.02;17.35;;;6.70;1.00;;;;;;6400381;22;20161;-88
2023/02/13 03:30:56;;;;;;;32.50;17.92;;;6.60;1.00;;;;;;6409119;22;20149;-88
2023/02/13 03:33:40;;;;;;;37.15;18.52;;;6.60;1.00;;;;;;6406236;22;20168;-89
2023/02/13 03:39:26;;;;;;;32.17;17.98;;;6.60;1.00;;;;;;6400258;22;20192;-89
2023/02/13 03:42:01;;;;;;;31.80;17.48;;;6.60;1.00;;;;;;6399375;22;20160;-88
2023/02/13 03:44:33;;;;;;;30.88;18.45;;;6.60;1.00;;;;;;6372336;22;20149;-90
2023/02/13 03:47:06;;;;;;;32.03;18.00;;;6.60;1.00;;;;;;6372174;22;20190;-91
2023/02/13 03:52:52;;;;;;;26.40;15.10;;;6.50;1.00;;;;;;6401025;22;20198;-89
2023/02/13 04:01:48;;;;;;;33.25;17.55;;;6.50;1.00;;;;;;6399630;22;20172;-89
2023/02/13 04:05:06;;;;;;;30.55;16.25;;;6.50;1.00;;;;;;6400166;22;20145;-89
2023/02/13 04:07:32;;;;;;;31.05;16.63;;;6.50;1.00;;;;;;6367088;22;20161;-89
2023/02/13 04:10:09;;;;;;;36.77;18.00;;;6.40;1.00;;;;;;6399771;22;20628;-89
2023/02/13 04:12:50;;;;;;;30.20;16.33;;;6.40;1.00;;;;;;6398548;22;20355;-89
2023/02/13 04:15:28;;;;;;;33.95;17.95;;;6.40;1.00;;;;;;6372503;22;20279;-89
2023/02/13 04:18:10;;;;;;;31.83;17.27;;;6.40;1.00;;;;;;6399237;22;20169;-90
2023/02/13 04:20:43;;;;;;;29.77;17.02;;;6.40;1.00;;;;;;6399733;22;20572;-90
2023/02/13 04:23:12;;;;;;;38.30;22.63;;;6.40;1.00;;;;;;6399235;22;20150;-90
2023/02/13 04:25:42;;;;;;;29.83;17.23;;;6.30;1.00;;;;;;6400125;22;20141;-89
2023/02/13 04:28:07;;;;;;;48.50;25.90;;;6.30;1.00;;;;;;6398347;22;20198;-88
2023/02/13 04:30:33;;;;;;;92.87;44.23;;;6.30;1.00;;;;;;6398422;22;20170;-87
2023/02/13 04:33:11;;;;;;;;;;;;;;;;;;;;;
2023/02/13 04:35:44;;;;;;;94.03;44.20;;;6.30;1.00;;;;;;6399763;22;20248;-89
2023/02/13 04:38:12;;;;;;;38.90;21.95;;;6.30;1.00;;;;;;6399193;22;20169;-89
2023/02/13 04:40:38;;;;;;;36.92;18.52;;;6.20;1.00;;;;;;6397744;22;20145;-89
2023/02/13 04:43:06;;;;;;;28.90;16.63;;;6.20;1.00;;;;;;6399304;22;20217;-89
2023/02/13 04:45:39;;;;;;;37.03;18.75;;;6.20;1.00;;;;;;6399287;22;20581;-89
2023/02/13 04:48:25;;;;;;;30.52;16.85;;;6.20;1.00;;;;;;6399545;22;20133;-89
2023/02/13 04:50:53;;;;;;;37.58;18.50;;;6.10;1.00;;;;;;6372599;22;20504;-88
2023/02/13 04:53:31;;;;;;;35.63;18.30;;;6.10;1.00;;;;;;6399110;22;20180;-89
2023/02/13 04:59:22;;;;;;;32.10;18.25;;;6.10;1.00;;;;;;6380858;22;20281;-89
2023/02/13 05:02:17;;;;;;;67.20;32.25;;;6.10;1.00;;;;;;6398437;22;20470;-89
2023/02/13 05:07:57;;;;;;;30.75;16.52;;;6.00;1.00;;;;;;6376999;22;20172;-88
2023/02/13 05:11:03;;;;;;;;;;;;;;;;;;;;;
2023/02/13 05:13:57;;;;;;;35.53;17.67;;;6.00;1.00;;;;;;6399285;22;20249;-88
2023/02/13 05:16:25;;;;;;;33.58;19.40;;;6.00;1.00;;;;;;6370779;22;20146;-90
2023/02/13 05:18:53;;;;;;;47.70;28.58;;;6.00;1.00;;;;;;6398855;22;20177;-88
2023/02/13 05:24:46;;;;;;;44.42;22.60;;;5.90;1.00;;;;;;6393000;22;20253;-89
2023/02/13 05:27:52;;;;;;;34.90;19.10;;;5.90;1.00;;;;;;6398674;22;20145;-89
2023/02/13 05:30:18;;;;;;;40.92;21.75;;;5.90;1.00;;;;;;6370974;22;20680;-89
2023/02/13 05:32:53;;;;;;;;;;;;;;;;;;;;;
2023/02/13 05:35:23;;;;;;;36.45;19.60;;;5.90;1.00;;;;;;6402523;22;20549;-89
2023/02/13 05:37:51;;;;;;;37.38;19.58;;;5.90;1.00;;;;;;6397990;22;20200;-89
2023/02/13 05:40:24;;;;;;;40.92;22.58;;;5.90;1.00;;;;;;6399088;22;20168;-89
2023/02/13 05:42:55;;;;;;;36.47;19.60;;;5.80;1.00;;;;;;6370937;22;20588;-88
2023/02/13 05:45:48;;;;;;;;;;;;;;;;;;;;;
2023/02/13 05:48:16;;;;;;;50.97;23.95;;;5.80;1.00;;;;;;6400346;22;20212;-89
2023/02/13 05:50:42;;;;;;;34.83;17.05;;;5.80;1.00;;;;;;6399581;22;20224;-90
2023/02/13 05:53:10;;;;;;;42.20;21.63;;;5.80;1.00;;;;;;6400187;22;20181;-87
2023/02/13 05:55:37;;;;;;;34.80;19.25;;;5.80;1.00;;;;;;6400626;22;20145;-89
2023/02/13 05:58:03;;;;;;;32.83;18.90;;;5.80;1.00;;;;;;6374019;22;20256;-89
2023/02/13 06:00:31;;;;;;;57.07;27.70;;;5.70;1.00;;;;;;6372246;22;20222;-89
2023/02/13 06:03:08;;;;;;;41.08;22.33;;;5.70;1.00;;;;;;6403078;22;20177;-88
2023/02/13 06:05:36;;;;;;;58.38;30.85;;;5.70;1.00;;;;;;6400209;22;20251;-88
2023/02/13 06:08:29;;;;;;;37.65;20.92;;;5.70;1.00;;;;;;6401774;22;20607;-88
2023/02/13 06:11:03;;;;;;;36.10;19.50;;;5.60;1.00;;;;;;6373410;22;20145;-89
2023/02/13 06:13:39;;;;;;;36.33;19.75;;;5.60;1.00;;;;;;6373801;22;20175;-89
2023/02/13 06:16:11;;;;;;;38.08;20.15;;;5.60;1.00;;;;;;6371780;22;20169;-88
2023/02/13 06:18:39;;;;;;;41.85;21.13;;;5.60;1.00;;;;;;6401824;22;20177;-89
2023/02/13 06:21:08;;;;;;;41.00;22.02;;;5.60;1.00;;;;;;6399796;22;20145;-88
2023/02/13 06:23:34;;;;;;;36.00;20.13;;;5.60;1.00;;;;;;6401001;22;20150;-89
2023/02/13 06:29:13;;;;;;;43.95;22.63;;;5.50;1.00;;;;;;6380109;22;20202;-88
2023/02/13 06:31:39;;;;;;;42.47;22.80;;;5.50;1.00;;;;;;6401117;22;20173;-89
2023/02/13 06:34:14;;;;;;;39.03;19.80;;;5.50;1.00;;;;;;6400004;22;20206;-89
2023/02/13 06:36:42;;;;;;;41.97;21.85;;;5.50;1.00;;;;;;6401231;22;20172;-89
2023/02/13 06:39:11;;;;;;;41.22;21.48;;;5.50;1.00;;;;;;6400119;22;20191;-88
2023/02/13 06:41:37;;;;;;;45.65;21.92;;;5.50;1.00;;;;;;6403104;22;20138;-88
2023/02/13 06:44:14;;;;;;;;;;;;;;;;;;;;;
2023/02/13 06:46:43;;;;;;;43.53;23.83;;;5.60;1.00;;;;;;6404189;22;20209;-89
2023/02/13 06:49:40;;;;;;;38.15;21.02;;;5.50;1.00;;;;;;6400555;22;20177;-88
2023/02/13 06:52:29;;;;;;;36.03;19.27;;;5.60;1.00;;;;;;6399848;22;20183;-89
2023/02/13 06:55:19;;;;;;;40.95;20.33;;;5.60;1.00;;;;;;6399881;22;20153;-89
2023/02/13 09:17:03;;;;;;;13.63;12.30;;;27.10;99.90;;;;;;6356220;22;20452;-85
2023/02/13 09:39:36;;;;;;;13.73;12.50;;;27.40;99.90;;;;;;6241776;22;20463;-86
2023/02/13 09:42:27;;;;;;;17.70;15.13;;;27.20;99.90;;;;;;6335885;22;20358;-85
2023/02/13 09:45:04;;;;;;;20.93;18.77;;;27.30;99.90;;;;;;6310217;22;20373;-86
2023/02/13 09:48:03;;;;;;;14.50;13.03;;;27.80;99.90;;;;;;6310107;22;20369;-88
2023/02/13 09:50:52;;;;;;;12.80;11.37;;;28.40;99.90;;;;;;6290544;22;20488;-86
2023/02/13 09:53:45;;;;;;;13.10;11.80;;;28.30;99.90;;;;;;6308683;22;20388;-86
2023/02/13 09:56:29;;;;;;;12.43;11.13;;;28.30;99.90;;;;;;6329392;22;20496;-87
2023/02/13 09:59:18;;;;;;;15.63;12.30;;;28.10;99.90;;;;;;6335013;22;20413;-87
2023/02/13 10:01:49;;;;;;;15.40;11.83;;;28.20;99.90;;;;;;6278509;22;20510;-86
2023/02/13 10:08:00;;;;;;;12.30;10.97;;;27.50;99.90;;;;;;6205146;23;20522;-86
2023/02/13 10:10:42;;;;;;;11.83;10.70;;;27.10;99.90;;;;;;6234965;22;20435;-85
2023/02/13 10:13:35;;;;;;;11.90;10.70;;;26.90;99.90;;;;;;6309045;22;20381;-86
2023/02/13 10:16:18;;;;;;;12.47;11.17;;;26.90;99.90;;;;;;6322039;22;20923;-86
2023/02/13 10:19:25;;;;;;;14.27;11.27;;;27.30;99.90;;;;;;6324216;22;20409;-85
2023/02/13 10:25:16;;;;;;;11.60;10.50;;;27.50;99.90;;;;;;6321406;22;20723;-86
2023/02/13 10:28:14;;;;;;;13.47;10.60;;;27.40;99.90;;;;;;6291644;22;20421;-87
2023/02/13 10:40:30;;;;;;;14.03;11.63;;;25.50;99.90;;;;;;6310717;22;20436;-86
2023/02/13 10:43:11;;;;;;;13.70;11.87;;;24.60;99.90;;;;;;6358152;22;20432;-86
2023/02/13 10:46:10;;;;;;;13.27;11.87;;;23.60;99.90;;;;;;6348393;22;20349;-86
2023/02/13 10:48:43;;;;;;;14.40;12.10;;;22.40;99.90;;;;;;6309069;22;20780;-85
2023/02/13 10:51:37;;;;;;;15.50;11.77;;;21.70;99.90;;;;;;6308872;22;20419;-85
2023/02/13 10:54:30;;;;;;;14.17;11.77;;;20.80;99.90;;;;;;6307130;22;20463;-86
2023/02/13 10:57:45;;;;;;;15.37;12.37;;;19.90;99.90;;;;;;6333577;22;21026;-85
2023/02/13 11:00:49;;;;;;;14.40;11.63;;;19.40;99.90;;;;;;6323345;22;20420;-85
2023/02/13 11:03:21;;;;;;;19.80;11.67;;;18.90;99.90;;;;;;6338319;22;20355;-86
2023/02/13 11:09:12;;;;;;;13.53;12.13;;;19.60;99.90;;;;;;6319396;22;20439;-86
2023/02/13 11:18:22;;;;;;;11.60;10.40;;;24.20;99.90;;;;;;6313069;22;20774;-86
2023/02/13 11:21:02;;;;;;;12.57;11.17;;;25.40;99.90;;;;;;6333568;22;20475;-87
2023/02/13 11:23:34;;;;;;;11.43;10.23;;;26.30;99.90;;;;;;6306084;22;20864;-86
2023/02/13 11:26:14;;;;;;;;;;;;;;;;;;;;;
2023/02/13 11:29:52;;;;;;;11.30;10.20;;;26.90;99.90;;;;;;6332898;22;20503;-86
2023/02/13 11:32:31;;;;;;;10.97;9.53;;;27.30;99.90;;;;;;6332487;22;20876;-86
2023/02/13 11:35:49;;;;;;;10.27;9.30;;;27.30;99.90;;;;;;6305726;22;20911;-86
2023/02/13 11:38:55;;;;;;;9.87;8.87;;;27.70;99.90;;;;;;6306562;22;20748;-85
2023/02/13 11:44:26;;;;;;;10.80;9.70;;;28.10;99.90;;;;;;6316935;22;20868;-85
2023/02/13 11:47:18;;;;;;;11.13;9.43;;;28.30;99.90;;;;;;6332006;22;20502;-88
2023/02/13 11:50:05;;;;;;;11.63;10.43;;;28.30;99.90;;;;;;6228072;22;20517;-86
2023/02/13 11:52:55;;;;;;;10.67;9.67;;;28.40;99.90;;;;;;6243873;22;20411;-86
2023/02/13 12:02:11;;;;;;;10.70;9.00;;;28.30;99.90;;;;;;6364976;22;20412;-87
2023/02/13 12:05:15;;;;;;;10.97;9.87;;;28.60;99.90;;;;;;6338286;22;20395;-86
2023/02/13 12:07:59;;;;;;;10.43;9.33;;;28.70;99.90;;;;;;6338089;22;20534;-86
2023/02/13 12:13:34;;;;;;;11.87;8.80;;;28.20;99.90;;;;;;6343957;22;20380;-86
2023/02/13 12:16:32;;;;;;;11.87;8.37;;;27.80;99.90;;;;;;6366679;22;20372;-88
2023/02/13 12:19:37;;;;;;;9.33;8.43;;;27.60;99.90;;;;;;6371242;22;20735;-86
2023/02/13 12:22:27;;;;;;;11.80;9.60;;;27.70;99.90;;;;;;6300565;22;20415;-87
2023/02/13 12:25:13;;;;;;;9.70;8.70;;;27.70;99.90;;;;;;6343811;22;20384;-86
2023/02/13 12:28:23;;;;;;;15.03;9.47;;;27.50;99.90;;;;;;6340324;22;20416;-85
2023/02/13 12:31:08;;;;;;;;;;;;;;;;;;;;;
2023/02/13 12:34:19;;;;;;;9.83;8.83;;;27.20;99.90;;;;;;6367544;22;20450;-85
2023/02/13 12:37:18;;;;;;;11.60;8.53;;;27.10;99.90;;;;;;6338356;22;20391;-86
2023/02/13 12:40:12;;;;;;;12.37;8.73;;;27.20;99.90;;;;;;6294528;22;20404;-87
2023/02/13 12:43:17;;;;;;;10.87;9.37;;;27.70;99.90;;;;;;6297609;22;20411;-86
2023/02/13 12:46:14;;;;;;;13.83;8.80;;;27.80;99.90;;;;;;6367947;22;20345;-86
2023/02/13 12:48:54;;;;;;;13.80;8.30;;;27.40;99.90;;;;;;6265723;22;20428;-87
2023/02/13 12:51:53;;;;;;;14.83;9.73;;;27.10;99.90;;;;;;6340172;22;20398;-86
2023/02/13 12:55:09;;;;;;;13.80;10.03;;;27.10;99.90;;;;;;6367223;22;20870;-86
2023/02/13 12:57:55;;;;;;;14.17;10.73;;;27.10;99.90;;;;;;6367955;22;20402;-87
2023/02/13 13:00:41;;;;;;;20.07;9.83;;;27.30;99.90;;;;;;6388870;22;20410;-86
2023/02/13 13:03:28;;;;;;;18.13;11.50;;;27.30;99.90;;;;;;6401811;22;20359;-85
2023/02/13 13:06:10;;;;;;;18.57;12.37;;;27.30;99.90;;;;;;6401926;22;20439;-86
2023/02/13 13:09:14;;;;;;;23.73;9.80;;;27.30;99.90;;;;;;6372767;22;20426;-85
2023/02/13 13:12:10;;;;;;;13.93;9.83;;;27.10;99.90;;;;;;6361176;22;20728;-86
2023/02/13 13:15:04;;;;;;;18.40;10.00;;;26.90;99.90;;;;;;6401437;22;20848;-86
2023/02/13 13:18:16;;;;;;;18.43;9.73;;;26.80;99.90;;;;;;6401304;22;20375;-85
2023/02/13 13:21:00;;;;;;;14.93;9.40;;;26.80;99.90;;;;;;6372565;22;20454;-86
2023/02/13 13:23:59;;;;;;;;;;;;;;;;;;;;;
2023/02/13 13:26:41;;;;;;;15.27;9.87;;;26.50;99.90;;;;;;6401036;22;20439;-85
2023/02/13 13:29:23;;;;;;;14.57;9.40;;;26.20;99.90;;;;;;6371850;22;20434;-86
2023/02/13 13:32:36;;;;;;;28.50;9.67;;;26.10;99.90;;;;;;6403080;22;20990;-85
2023/02/13 13:55:45;;;;;;;14.40;9.43;;;25.50;99.90;;;;;;6244069;23;20426;-85
2023/02/13 13:58:58;;;;;;;;;;;;;;;;;;;;;
2023/02/13 14:02:07;;;;;;;17.33;10.30;;;25.10;99.90;;;;;;6263587;22;20472;-86
2023/02/13 14:04:40;;;;;;;19.43;10.70;;;24.90;99.90;;;;;;6403753;22;20382;-84
2023/02/13 14:07:24;;;;;;;16.10;9.53;;;24.70;99.90;;;;;;6408234;22;20686;-86
2023/02/13 14:09:56;;;;;;;16.67;9.97;;;24.30;99.90;;;;;;6376741;22;20415;-83
2023/02/13 14:12:35;;;;;;;16.70;10.57;;;24.10;99.90;;;;;;6404209;22;20354;-85
2023/02/13 14:15:23;;;;;;;13.63;10.00;;;23.80;99.90;;;;;;6405924;22;20368;-85
2023/02/13 14:18:03;;;;;;;14.67;10.43;;;23.90;99.90;;;;;;6401565;22;20376;-86
2023/02/13 14:20:48;;;;;;;14.63;10.23;;;23.80;99.90;;;;;;6376379;22;21093;-85
2023/02/13 14:23:40;;;;;;;18.77;9.40;;;23.80;99.90;;;;;;6405107;22;20359;-85
2023/02/13 14:26:14;;;;;;;16.40;11.00;;;23.80;99.90;;;;;;6376369;22;20367;-85
2023/02/13 14:28:49;;;;;;;14.40;8.80;;;23.70;99.90;;;;;;6403137;22;20467;-85
2023/02/13 14:31:26;;;;;;;15.13;9.10;;;23.80;99.90;;;;;;6404723;22;20687;-84
2023/02/13 14:34:19;;;;;;;14.80;9.63;;;23.90;99.90;;;;;;6373237;22;20402;-85
2023/02/13 14:37:05;;;;;;;14.27;10.13;;;23.90;99.90;;;;;;6375664;22;20403;-84
2023/02/13 14:39:35;;;;;;;14.63;9.00;;;23.80;99.90;;;;;;6376045;22;20445;-85
2023/02/13 14:42:22;;;;;;;18.60;9.57;;;23.70;99.90;;;;;;6403770;22;20374;-85
2023/02/13 14:44:57;;;;;;;19.77;8.60;;;23.50;99.90;;;;;;6374348;22;20384;-86
2023/02/13 14:47:30;;;;;;;16.33;9.57;;;23.60;99.90;;;;;;6402756;22;20354;-85
2023/02/13 14:50:01;;;;;;;14.37;8.90;;;23.50;99.90;;;;;;6401351;22;20395;-83
2023/02/13 14:52:41;;;;;;;17.23;9.93;;;23.60;99.90;;;;;;6374809;22;20400;-85
2023/02/13 14:55:44;;;;;;;15.97;8.50;;;23.50;99.90;;;;;;6404228;22;20893;-85
2023/02/13 14:58:31;;;;;;;13.30;8.60;;;23.20;99.90;;;;;;6406426;22;20364;-84
2023/02/13 15:01:09;;;;;;;13.47;8.97;;;23.00;99.90;;;;;;6375216;22;20400;-83
2023/02/13 15:04:05;;;;;;;14.90;8.10;;;23.00;99.90;;;;;;6376175;22;20377;-85
2023/02/13 15:06:53;;;;;;;16.17;9.23;;;22.90;99.90;;;;;;6371940;22;20387;-85
2023/02/13 15:09:27;;;;;;;10.60;8.57;;;22.50;99.90;;;;;;6404105;22;20422;-85
2023/02/13 15:12:03;;;;;;;;;;;;;;;;;;;;;
2023/02/13 15:14:53;;;;;;;13.43;8.30;;;22.40;99.90;;;;;;6397796;22;20528;-85
2023/02/13 15:17:26;;;;;;;13.63;8.27;;;22.30;99.90;;;;;;6404412;22;20386;-85
2023/02/13 15:20:07;;;;;;;14.53;9.23;;;22.10;99.90;;;;;;6377233;22;20435;-86
2023/02/13 15:22:40;;;;;;;13.87;7.90;;;21.80;99.90;;;;;;6405803;22;20361;-85
2023/02/13 15:25:30;;;;;;;19.20;8.90;;;21.70;99.90;;;;;;6405226;22;20369;-85
2023/02/13 15:27:57;;;;;;;12.77;8.40;;;21.50;99.90;;;;;;6377596;22;20484;-84
2023/02/13 15:30:50;;;;;;;14.10;7.87;;;21.40;99.90;;;;;;6408354;22;20401;-85
2023/02/13 15:33:39;;;;;;;13.97;7.63;;;21.40;99.90;;;;;;6399890;22;20376;-85
2023/02/13 15:36:31;;;;;;;12.93;8.20;;;21.40;99.90;;;;;;6355613;22;20378;-84
2023/02/13 15:42:04;;;;;;;17.47;7.43;;;21.40;99.90;;;;;;6387702;22;20855;-85
2023/02/13 15:44:42;;;;;;;8.57;7.40;;;21.40;99.90;;;;;;6383635;22;20376;-85
2023/02/13 15:47:31;;;;;;;17.20;6.90;;;21.30;99.90;;;;;;6408603;22;20363;-85
2023/02/13 15:50:33;;;;;;;14.97;7.83;;;21.00;99.90;;;;;;6409835;22;20393;-84
2023/02/13 15:53:49;;;;;;;10.77;6.40;;;20.80;99.90;;;;;;6409997;22;20391;-85
2023/02/13 15:56:24;;;;;;;;;;;;;;;;;;;;;
2023/02/13 15:58:52;;;;;;;10.87;6.97;;;20.40;99.90;;;;;;6410208;22;20421;-86
2023/02/13 16:01:18;;;;;;;11.03;7.00;;;20.30;99.90;;;;;;6407509;22;20385;-86
2023/02/13 16:03:50;;;;;;;12.60;7.20;;;20.20;99.90;;;;;;6408575;22;20460;-84
2023/02/13 16:06:18;;;;;;;13.40;9.50;;;20.00;99.90;;;;;;6408011;22;20132;-83
2023/02/13 16:08:53;;;;;;;11.10;6.83;;;19.70;99.90;;;;;;6409100;22;20590;-83
2023/02/13 16:11:41;;;;;;;15.23;7.30;;;19.50;99.90;;;;;;6408319;22;20492;-85
2023/02/13 16:14:23;;;;;;;11.23;7.30;;;19.20;99.90;;;;;;6407223;22;20362;-85
2023/02/13 16:17:07;;;;;;;12.83;6.80;;;18.90;99.90;;;;;;6385043;22;20378;-84
2023/02/13 16:19:44;;;;;;;12.57;8.13;;;18.60;99.90;;;;;;6391890;22;20397;-84
2023/02/13 16:22:43;;;;;;;18.33;9.20;;;18.40;99.90;;;;;;6392372;22;20408;-84
2023/02/13 16:25:13;;;;;;;15.80;8.13;;;18.10;99.90;;;;;;6421066;22;20364;-84
2023/02/13 16:27:46;;;;;;;10.57;6.93;;;17.90;99.90;;;;;;6415175;22;20383;-84
2023/02/13 16:30:36;;;;;;;18.73;7.80;;;17.60;99.90;;;;;;6412778;22;20383;-85
2023/02/13 16:33:25;;;;;;;10.47;7.17;;;17.40;99.90;;;;;;6382692;22;20371;-85
2023/02/13 16:35:54;;;;;;;12.47;6.83;;;17.10;99.90;;;;;;6377780;22;20467;-86
2023/02/13 16:38:41;;;;;;;10.30;7.07;;;17.00;99.90;;;;;;6408216;22;20386;-84
2023/02/13 16:41:21;;;;;;;13.00;6.17;;;16.80;99.90;;;;;;6405754;22;20376;-86
2023/02/13 16:43:50;;;;;;;15.47;7.60;;;16.70;99.90;;;;;;6409892;22;20410;-85
2023/02/13 16:46:20;;;;;;;12.67;7.23;;;16.50;99.90;;;;;;6409470;22;20841;-86
2023/02/13 16:48:55;;;;;;;18.03;6.60;;;16.50;99.90;;;;;;6380192;22;20462;-85
2023/02/13 16:51:50;;;;;;;11.53;7.03;;;16.40;99.90;;;;;;6410446;22;20366;-85
2023/02/13 16:54:23;;;;;;;14.30;8.50;;;16.20;99.90;;;;;;6410531;22;20371;-85
2023/02/13 16:56:57;;;;;;;11.60;7.40;;;16.10;99.90;;;;;;6410030;22;20372;-85
2023/02/13 16:59:46;;;;;;;21.87;7.90;;;15.90;99.90;;;;;;6410657;22;20395;-85
2023/02/13 17:02:37;;;;;;;11.67;7.73;;;15.80;99.90;;;;;;6408451;22;20885;-86
2023/02/13 17:05:08;;;;;;;14.70;8.97;;;15.70;99.90;;;;;;6401808;22;20966;-85
2023/02/13 17:07:35;;;;;;;11.80;8.10;;;15.50;99.90;;;;;;6400867;22;20371;-85
2023/02/13 17:10:04;;;;;;;12.53;8.80;;;15.40;99.90;;;;;;6408797;22;20433;-86
2023/02/13 17:12:34;;;;;;;14.10;9.60;;;15.30;99.90;;;;;;6404845;22;20500;-85
2023/02/13 17:15:00;;;;;;;13.50;9.10;;;15.20;99.90;;;;;;6401217;22;20381;-85
2023/02/13 17:17:28;;;;;;;13.60;9.17;;;15.10;99.90;;;;;;6401550;22;20378;-86
2023/02/13 17:19:54;;;;;;;10.60;8.73;;;15.00;99.90;;;;;;6401746;22;20181;-85
2023/02/13 17:22:49;;;;;;;12.80;9.23;;;14.80;99.90;;;;;;6401847;22;20377;-86
2023/02/13 17:25:19;;;;;;;13.63;9.03;;;14.70;99.90;;;;;;6398307;22;20135;-85
2023/02/13 17:27:45;;;;;;;12.23;8.80;;;14.60;99.90;;;;;;6399648;22;20362;-86
2023/02/13 17:30:19;;;;;;;11.33;8.10;;;14.50;99.90;;;;;;6398699;22;20471;-89
2023/02/13 17:32:48;;;;;;;11.13;8.50;;;14.40;99.90;;;;;;6396814;22;20387;-88
2023/02/13 17:35:15;;;;;;;13.23;8.60;;;14.40;99.90;;;;;;6400299;22;20711;-84
2023/02/13 17:37:42;;;;;;;12.00;8.20;;;14.30;99.90;;;;;;6399761;22;20443;-88
2023/02/13 17:40:15;;;;;;;13.50;10.10;;;14.20;99.90;;;;;;6371177;22;20407;-88
2023/02/13 17:42:43;;;;;;;14.50;8.90;;;14.10;99.90;;;;;;6399582;22;20355;-88
2023/02/13 17:45:14;;;;;;;16.80;9.80;;;14.00;99.90;;;;;;6374481;22;20417;-87
2023/02/13 17:47:42;;;;;;;15.53;9.63;;;13.90;99.90;;;;;;6403985;22;20420;-87
2023/02/13 17:50:08;;;;;;;14.27;9.13;;;13.70;99.90;;;;;;6399674;22;20395;-88
2023/02/13 17:52:34;;;;;;;18.47;10.00;;;13.60;99.90;;;;;;6400197;22;20455;-88
2023/02/13 17:55:07;;;;;;;16.87;9.00;;;13.50;99.90;;;;;;6400087;22;20368;-88
2023/02/13 17:57:32;;;;;;;20.83;9.70;;;13.40;99.90;;;;;;6399593;22;20122;-88
2023/02/13 18:00:03;;;;;;;14.03;9.63;;;13.30;99.90;;;;;;6371400;22;20626;-88
2023/02/13 18:02:28;;;;;;;16.10;9.93;;;13.20;99.90;;;;;;6400385;22;20656;-88
2023/02/13 18:04:54;;;;;;;12.47;9.37;;;13.10;99.90;;;;;;6400235;22;20372;-89
2023/02/13 18:07:20;;;;;;;14.20;9.60;;;13.10;99.90;;;;;;6400264;22;20142;-88
2023/02/13 18:09:46;;;;;;;14.33;9.47;;;13.00;99.90;;;;;;6399482;22;20667;-88
2023/02/13 18:12:30;;;;;;;19.40;9.77;;;12.90;99.90;;;;;;6398050;22;20454;-88
2023/02/13 18:14:58;;;;;;;16.17;9.23;;;12.90;99.90;;;;;;6370445;22;20204;-88
2023/02/13 18:17:23;;;;;;;15.20;10.47;;;12.80;99.90;;;;;;6399438;22;20375;-90
2023/02/13 18:19:51;;;;;;;13.83;9.40;;;12.70;99.90;;;;;;6398612;22;20399;-88
2023/02/13 18:22:17;;;;;;;16.70;9.97;;;12.60;99.90;;;;;;6398710;22;20225;-89
2023/02/13 18:24:52;;;;;;;17.47;10.70;;;12.60;99.90;;;;;;6396449;22;20395;-89
2023/02/13 18:27:25;;;;;;;21.83;9.03;;;12.50;99.90;;;;;;6399547;22;20134;-88
2023/02/13 18:29:58;;;;;;;19.17;8.93;;;12.40;99.90;;;;;;6400156;22;20487;-88
2023/02/13 18:32:26;;;;;;;16.93;7.97;;;12.40;99.90;;;;;;6401028;22;20354;-87
2023/02/13 18:34:59;;;;;;;15.43;8.37;;;12.30;99.90;;;;;;6399717;22;20372;-88
2023/02/13 18:37:46;;;;;;;12.40;9.10;;;12.20;99.90;;;;;;6399823;22;20381;-90
2023/02/13 18:40:28;;;;;;;19.00;11.20;;;12.10;99.90;;;;;;6398304;22;20391;-90